sensor_id;sensor_type;location;lat;lon;timestamp;P1;durP1;ratioP1;P2;durP2;ratioP2
76574;SDS011;65439;50.948;6.988;2024-03-02T00:01:25;3.17;;;1.80;;
76574;SDS011;65439;50.948;6.988;2024-03-02T00:03:50;3.57;;;2.30;;
76574;SDS011;65439;50.948;6.988;2024-03-02T00:06:19;2.20;;;1.67;;
76574;SDS011;65439;50.948;6.988;2024-03-02T00:08:44;2.70;;;2.10;;
76574;SDS011;65439;50.948;6.988;2024-03-02T00:11:09;3.73;;;2.10;;
76574;SDS011;65439;50.948;6.988;2024-03-02T00:13:36;4.05;;;2.03;;
76574;SDS011;65439;50.948;6.988;2024-03-02T00:16:02;4.43;;;2.47;;
76574;SDS011;65439;50.948;6.988;2024-03-02T00:18:33;2.90;;;2.08;;
76574;SDS011;65439;50.948;6.988;2024-03-02T00:20:59;3.42;;;2.13;;
76574;SDS011;65439;50.948;6.988;2024-03-02T00:23:27;3.90;;;2.57;;
76574;SDS011;65439;50.948;6.988;2024-03-02T00:25:55;4.47;;;2.63;;
76574;SDS011;65439;50.948;6.988;2024-03-02T00:28:21;6.00;;;2.47;;
76574;SDS011;65439;50.948;6.988;2024-03-02T00:33:30;7.80;;;2.70;;
76574;SDS011;65439;50.948;6.988;2024-03-02T00:35:56;4.45;;;2.00;;
76574;SDS011;65439;50.948;6.988;2024-03-02T00:38:22;2.88;;;2.10;;
76574;SDS011;65439;50.948;6.988;2024-03-02T00:40:47;2.97;;;1.95;;
76574;SDS011;65439;50.948;6.988;2024-03-02T00:45:56;3.15;;;1.90;;
76574;SDS011;65439;50.948;6.988;2024-03-02T00:48:22;3.22;;;1.85;;
76574;SDS011;65439;50.948;6.988;2024-03-02T00:50:50;3.03;;;1.93;;
76574;SDS011;65439;50.948;6.988;2024-03-02T00:53:16;2.75;;;2.17;;
76574;SDS011;65439;50.948;6.988;2024-03-02T00:55:42;3.28;;;2.08;;
76574;SDS011;65439;50.948;6.988;2024-03-02T00:58:12;2.97;;;2.03;;
76574;SDS011;65439;50.948;6.988;2024-03-02T01:00:37;2.95;;;2.13;;
76574;SDS011;65439;50.948;6.988;2024-03-02T01:03:02;3.05;;;1.95;;
76574;SDS011;65439;50.948;6.988;2024-03-02T01:05:29;4.03;;;2.05;;
76574;SDS011;65439;50.948;6.988;2024-03-02T01:07:54;3.27;;;1.90;;
76574;SDS011;65439;50.948;6.988;2024-03-02T01:10:19;3.00;;;2.33;;
76574;SDS011;65439;50.948;6.988;2024-03-02T01:12:45;2.78;;;1.98;;
76574;SDS011;65439;50.948;6.988;2024-03-02T01:15:10;3.13;;;2.30;;
76574;SDS011;65439;50.948;6.988;2024-03-02T01:17:36;3.60;;;2.45;;
76574;SDS011;65439;50.948;6.988;2024-03-02T01:20:01;2.70;;;1.87;;
76574;SDS011;65439;50.948;6.988;2024-03-02T01:22:26;2.37;;;1.67;;
76574;SDS011;65439;50.948;6.988;2024-03-02T01:24:51;3.45;;;2.10;;
76574;SDS011;65439;50.948;6.988;2024-03-02T01:27:17;6.70;;;1.90;;
76574;SDS011;65439;50.948;6.988;2024-03-02T01:29:42;2.53;;;1.70;;
76574;SDS011;65439;50.948;6.988;2024-03-02T01:32:07;3.88;;;1.98;;
76574;SDS011;65439;50.948;6.988;2024-03-02T01:34:32;3.50;;;2.30;;
76574;SDS011;65439;50.948;6.988;2024-03-02T01:36:57;4.05;;;2.17;;
76574;SDS011;65439;50.948;6.988;2024-03-02T01:39:22;2.83;;;1.88;;
76574;SDS011;65439;50.948;6.988;2024-03-02T01:41:47;3.87;;;2.23;;
76574;SDS011;65439;50.948;6.988;2024-03-02T01:44:13;2.65;;;1.92;;
76574;SDS011;65439;50.948;6.988;2024-03-02T01:46:38;2.80;;;1.67;;
76574;SDS011;65439;50.948;6.988;2024-03-02T01:49:03;3.20;;;2.33;;
76574;SDS011;65439;50.948;6.988;2024-03-02T01:51:29;3.63;;;1.85;;
76574;SDS011;65439;50.948;6.988;2024-03-02T01:53:54;5.37;;;2.00;;
76574;SDS011;65439;50.948;6.988;2024-03-02T01:56:20;3.20;;;2.10;;
76574;SDS011;65439;50.948;6.988;2024-03-02T01:58:45;3.57;;;1.90;;
76574;SDS011;65439;50.948;6.988;2024-03-02T02:01:10;6.00;;;2.20;;
76574;SDS011;65439;50.948;6.988;2024-03-02T02:03:35;3.83;;;1.67;;
76574;SDS011;65439;50.948;6.988;2024-03-02T02:06:01;1.92;;;1.55;;
76574;SDS011;65439;50.948;6.988;2024-03-02T02:08:27;2.30;;;1.73;;
76574;SDS011;65439;50.948;6.988;2024-03-02T02:10:52;2.30;;;1.70;;
76574;SDS011;65439;50.948;6.988;2024-03-02T02:13:17;3.45;;;1.92;;
76574;SDS011;65439;50.948;6.988;2024-03-02T02:15:42;3.08;;;1.95;;
76574;SDS011;65439;50.948;6.988;2024-03-02T02:18:07;5.18;;;1.98;;
76574;SDS011;65439;50.948;6.988;2024-03-02T02:20:32;2.50;;;1.58;;
76574;SDS011;65439;50.948;6.988;2024-03-02T02:25:23;3.77;;;2.10;;
76574;SDS011;65439;50.948;6.988;2024-03-02T02:27:48;2.67;;;1.77;;
76574;SDS011;65439;50.948;6.988;2024-03-02T02:30:13;7.00;;;1.77;;
76574;SDS011;65439;50.948;6.988;2024-03-02T02:32:43;5.75;;;1.98;;
76574;SDS011;65439;50.948;6.988;2024-03-02T02:35:08;2.50;;;1.52;;
76574;SDS011;65439;50.948;6.988;2024-03-02T02:37:33;3.38;;;1.80;;
76574;SDS011;65439;50.948;6.988;2024-03-02T02:39:58;4.13;;;2.00;;
76574;SDS011;65439;50.948;6.988;2024-03-02T02:42:24;4.78;;;1.85;;
76574;SDS011;65439;50.948;6.988;2024-03-02T02:44:49;2.80;;;1.77;;
76574;SDS011;65439;50.948;6.988;2024-03-02T02:47:14;2.35;;;1.80;;
76574;SDS011;65439;50.948;6.988;2024-03-02T02:49:39;3.25;;;1.90;;
76574;SDS011;65439;50.948;6.988;2024-03-02T02:52:04;3.00;;;2.05;;
76574;SDS011;65439;50.948;6.988;2024-03-02T02:54:29;2.90;;;1.73;;
76574;SDS011;65439;50.948;6.988;2024-03-02T02:56:55;3.42;;;1.63;;
76574;SDS011;65439;50.948;6.988;2024-03-02T02:59:20;2.65;;;2.15;;
76574;SDS011;65439;50.948;6.988;2024-03-02T03:01:45;5.35;;;2.03;;
76574;SDS011;65439;50.948;6.988;2024-03-02T03:04:10;5.27;;;1.70;;
76574;SDS011;65439;50.948;6.988;2024-03-02T03:06:35;3.57;;;2.23;;
76574;SDS011;65439;50.948;6.988;2024-03-02T03:09:00;2.78;;;1.80;;
76574;SDS011;65439;50.948;6.988;2024-03-02T03:11:25;2.80;;;1.73;;
76574;SDS011;65439;50.948;6.988;2024-03-02T03:13:51;3.55;;;2.13;;
76574;SDS011;65439;50.948;6.988;2024-03-02T03:16:16;3.13;;;1.63;;
76574;SDS011;65439;50.948;6.988;2024-03-02T03:18:41;2.10;;;1.73;;
76574;SDS011;65439;50.948;6.988;2024-03-02T03:21:06;2.67;;;1.85;;
76574;SDS011;65439;50.948;6.988;2024-03-02T03:23:31;4.27;;;1.60;;
76574;SDS011;65439;50.948;6.988;2024-03-02T03:25:57;2.93;;;2.10;;
76574;SDS011;65439;50.948;6.988;2024-03-02T03:28:22;2.93;;;1.67;;
76574;SDS011;65439;50.948;6.988;2024-03-02T03:30:47;2.63;;;1.57;;
76574;SDS011;65439;50.948;6.988;2024-03-02T03:33:12;4.47;;;1.80;;
76574;SDS011;65439;50.948;6.988;2024-03-02T03:35:37;3.03;;;2.03;;
76574;SDS011;65439;50.948;6.988;2024-03-02T03:38:02;3.90;;;2.07;;
76574;SDS011;65439;50.948;6.988;2024-03-02T03:40:28;3.30;;;1.63;;
76574;SDS011;65439;50.948;6.988;2024-03-02T03:42:53;2.20;;;1.35;;
76574;SDS011;65439;50.948;6.988;2024-03-02T03:45:18;2.72;;;1.85;;
76574;SDS011;65439;50.948;6.988;2024-03-02T03:47:44;3.38;;;2.17;;
76574;SDS011;65439;50.948;6.988;2024-03-02T03:50:09;4.93;;;1.85;;
76574;SDS011;65439;50.948;6.988;2024-03-02T03:52:34;4.33;;;1.73;;
76574;SDS011;65439;50.948;6.988;2024-03-02T03:55:00;2.70;;;1.57;;
76574;SDS011;65439;50.948;6.988;2024-03-02T03:57:25;2.35;;;1.60;;
76574;SDS011;65439;50.948;6.988;2024-03-02T03:59:51;2.72;;;1.70;;
76574;SDS011;65439;50.948;6.988;2024-03-02T04:02:16;2.20;;;1.52;;
76574;SDS011;65439;50.948;6.988;2024-03-02T04:04:41;3.95;;;1.90;;
76574;SDS011;65439;50.948;6.988;2024-03-02T04:07:06;2.47;;;1.67;;
76574;SDS011;65439;50.948;6.988;2024-03-02T04:09:32;5.30;;;2.10;;
76574;SDS011;65439;50.948;6.988;2024-03-02T04:11:57;3.45;;;1.90;;
76574;SDS011;65439;50.948;6.988;2024-03-02T04:14:22;3.58;;;1.85;;
76574;SDS011;65439;50.948;6.988;2024-03-02T04:16:48;3.10;;;2.03;;
76574;SDS011;65439;50.948;6.988;2024-03-02T04:19:13;2.72;;;1.92;;
76574;SDS011;65439;50.948;6.988;2024-03-02T04:21:38;4.03;;;2.10;;
76574;SDS011;65439;50.948;6.988;2024-03-02T04:24:03;2.40;;;1.67;;
76574;SDS011;65439;50.948;6.988;2024-03-02T04:26:28;2.90;;;1.80;;
76574;SDS011;65439;50.948;6.988;2024-03-02T04:28:54;2.97;;;1.80;;
76574;SDS011;65439;50.948;6.988;2024-03-02T04:31:19;3.07;;;1.43;;
76574;SDS011;65439;50.948;6.988;2024-03-02T04:33:44;2.83;;;1.80;;
76574;SDS011;65439;50.948;6.988;2024-03-02T04:36:09;3.05;;;1.52;;
76574;SDS011;65439;50.948;6.988;2024-03-02T04:38:35;4.67;;;2.10;;
76574;SDS011;65439;50.948;6.988;2024-03-02T04:41:00;3.13;;;1.80;;
76574;SDS011;65439;50.948;6.988;2024-03-02T04:43:25;2.53;;;1.98;;
76574;SDS011;65439;50.948;6.988;2024-03-02T04:45:50;3.08;;;1.85;;
76574;SDS011;65439;50.948;6.988;2024-03-02T04:48:15;3.30;;;1.90;;
76574;SDS011;65439;50.948;6.988;2024-03-02T04:50:40;3.93;;;2.50;;
76574;SDS011;65439;50.948;6.988;2024-03-02T04:53:06;2.77;;;1.80;;
76574;SDS011;65439;50.948;6.988;2024-03-02T04:55:31;3.83;;;2.10;;
76574;SDS011;65439;50.948;6.988;2024-03-02T04:57:59;2.70;;;2.08;;
76574;SDS011;65439;50.948;6.988;2024-03-02T05:00:24;4.00;;;1.97;;
76574;SDS011;65439;50.948;6.988;2024-03-02T05:02:49;2.87;;;1.60;;
76574;SDS011;65439;50.948;6.988;2024-03-02T05:05:14;3.63;;;2.27;;
76574;SDS011;65439;50.948;6.988;2024-03-02T05:07:40;2.60;;;2.00;;
76574;SDS011;65439;50.948;6.988;2024-03-02T05:10:07;4.18;;;1.90;;
76574;SDS011;65439;50.948;6.988;2024-03-02T05:12:32;4.38;;;2.47;;
76574;SDS011;65439;50.948;6.988;2024-03-02T05:15:10;3.42;;;2.10;;
76574;SDS011;65439;50.948;6.988;2024-03-02T05:17:36;3.08;;;1.88;;
76574;SDS011;65439;50.948;6.988;2024-03-02T05:20:02;3.47;;;2.05;;
76574;SDS011;65439;50.948;6.988;2024-03-02T05:22:28;3.53;;;2.30;;
76574;SDS011;65439;50.948;6.988;2024-03-02T05:24:53;3.97;;;2.30;;
76574;SDS011;65439;50.948;6.988;2024-03-02T05:27:19;3.47;;;2.03;;
76574;SDS011;65439;50.948;6.988;2024-03-02T05:29:44;4.88;;;2.03;;
76574;SDS011;65439;50.948;6.988;2024-03-02T05:32:09;4.32;;;2.63;;
76574;SDS011;65439;50.948;6.988;2024-03-02T05:34:34;3.17;;;2.30;;
76574;SDS011;65439;50.948;6.988;2024-03-02T05:37:00;3.33;;;2.20;;
76574;SDS011;65439;50.948;6.988;2024-03-02T05:39:25;3.35;;;2.88;;
76574;SDS011;65439;50.948;6.988;2024-03-02T05:41:51;4.35;;;2.35;;
76574;SDS011;65439;50.948;6.988;2024-03-02T05:44:16;3.40;;;2.97;;
76574;SDS011;65439;50.948;6.988;2024-03-02T05:46:41;3.83;;;2.50;;
76574;SDS011;65439;50.948;6.988;2024-03-02T05:49:07;5.28;;;2.08;;
76574;SDS011;65439;50.948;6.988;2024-03-02T05:51:36;4.20;;;2.40;;
76574;SDS011;65439;50.948;6.988;2024-03-02T05:54:01;3.57;;;2.27;;
76574;SDS011;65439;50.948;6.988;2024-03-02T05:56:26;3.30;;;2.23;;
76574;SDS011;65439;50.948;6.988;2024-03-02T05:58:52;3.35;;;2.63;;
76574;SDS011;65439;50.948;6.988;2024-03-02T06:01:36;3.08;;;2.03;;
76574;SDS011;65439;50.948;6.988;2024-03-02T06:04:01;3.73;;;2.07;;
76574;SDS011;65439;50.948;6.988;2024-03-02T06:06:26;4.72;;;2.30;;
76574;SDS011;65439;50.948;6.988;2024-03-02T06:08:51;4.88;;;2.92;;
76574;SDS011;65439;50.948;6.988;2024-03-02T06:11:17;3.47;;;2.72;;
76574;SDS011;65439;50.948;6.988;2024-03-02T06:13:42;3.70;;;2.60;;
76574;SDS011;65439;50.948;6.988;2024-03-02T06:16:07;6.53;;;2.60;;
76574;SDS011;65439;50.948;6.988;2024-03-02T06:18:33;2.55;;;2.08;;
76574;SDS011;65439;50.948;6.988;2024-03-02T06:20:58;4.25;;;2.83;;
76574;SDS011;65439;50.948;6.988;2024-03-02T06:23:23;4.00;;;2.63;;
76574;SDS011;65439;50.948;6.988;2024-03-02T06:25:48;5.10;;;2.63;;
76574;SDS011;65439;50.948;6.988;2024-03-02T06:28:13;3.70;;;2.47;;
76574;SDS011;65439;50.948;6.988;2024-03-02T06:30:40;3.83;;;2.40;;
76574;SDS011;65439;50.948;6.988;2024-03-02T06:33:05;4.30;;;3.05;;
76574;SDS011;65439;50.948;6.988;2024-03-02T06:35:31;2.60;;;2.00;;
76574;SDS011;65439;50.948;6.988;2024-03-02T06:37:56;4.80;;;2.97;;
76574;SDS011;65439;50.948;6.988;2024-03-02T06:40:21;3.33;;;2.43;;
76574;SDS011;65439;50.948;6.988;2024-03-02T06:42:46;4.55;;;2.55;;
76574;SDS011;65439;50.948;6.988;2024-03-02T06:45:12;7.47;;;3.03;;
76574;SDS011;65439;50.948;6.988;2024-03-02T06:47:37;6.68;;;3.25;;
76574;SDS011;65439;50.948;6.988;2024-03-02T06:50:02;4.83;;;2.70;;
76574;SDS011;65439;50.948;6.988;2024-03-02T06:52:27;3.83;;;2.37;;
76574;SDS011;65439;50.948;6.988;2024-03-02T06:54:52;4.60;;;2.97;;
76574;SDS011;65439;50.948;6.988;2024-03-02T06:57:17;3.13;;;2.23;;
76574;SDS011;65439;50.948;6.988;2024-03-02T07:02:09;6.55;;;2.53;;
76574;SDS011;65439;50.948;6.988;2024-03-02T07:04:34;4.03;;;2.50;;
76574;SDS011;65439;50.948;6.988;2024-03-02T07:07:00;6.80;;;2.97;;
76574;SDS011;65439;50.948;6.988;2024-03-02T07:09:25;4.43;;;2.80;;
76574;SDS011;65439;50.948;6.988;2024-03-02T07:11:50;3.08;;;2.15;;
76574;SDS011;65439;50.948;6.988;2024-03-02T07:14:16;9.40;;;2.97;;
76574;SDS011;65439;50.948;6.988;2024-03-02T07:16:41;8.33;;;2.80;;
76574;SDS011;65439;50.948;6.988;2024-03-02T07:21:33;6.60;;;3.15;;
76574;SDS011;65439;50.948;6.988;2024-03-02T07:23:58;4.87;;;2.50;;
76574;SDS011;65439;50.948;6.988;2024-03-02T07:26:24;3.92;;;3.00;;
76574;SDS011;65439;50.948;6.988;2024-03-02T07:28:49;7.25;;;3.25;;
76574;SDS011;65439;50.948;6.988;2024-03-02T07:31:15;5.37;;;2.97;;
76574;SDS011;65439;50.948;6.988;2024-03-02T07:33:40;4.50;;;3.63;;
76574;SDS011;65439;50.948;6.988;2024-03-02T07:36:05;3.97;;;3.10;;
76574;SDS011;65439;50.948;6.988;2024-03-02T07:38:31;4.10;;;3.10;;
76574;SDS011;65439;50.948;6.988;2024-03-02T07:40:57;5.72;;;3.20;;
76574;SDS011;65439;50.948;6.988;2024-03-02T07:43:22;4.85;;;3.15;;
76574;SDS011;65439;50.948;6.988;2024-03-02T07:45:47;5.53;;;3.07;;
76574;SDS011;65439;50.948;6.988;2024-03-02T07:48:13;6.60;;;3.05;;
76574;SDS011;65439;50.948;6.988;2024-03-02T07:50:38;7.03;;;3.30;;
76574;SDS011;65439;50.948;6.988;2024-03-02T07:53:04;5.82;;;3.22;;
76574;SDS011;65439;50.948;6.988;2024-03-02T07:55:30;6.93;;;3.40;;
76574;SDS011;65439;50.948;6.988;2024-03-02T07:57:55;5.40;;;3.28;;
76574;SDS011;65439;50.948;6.988;2024-03-02T08:00:20;5.07;;;2.88;;
76574;SDS011;65439;50.948;6.988;2024-03-02T08:02:46;6.70;;;3.47;;
76574;SDS011;65439;50.948;6.988;2024-03-02T08:05:11;6.70;;;3.40;;
76574;SDS011;65439;50.948;6.988;2024-03-02T08:07:36;4.30;;;3.25;;
76574;SDS011;65439;50.948;6.988;2024-03-02T08:10:01;5.43;;;2.83;;
76574;SDS011;65439;50.948;6.988;2024-03-02T08:12:27;4.80;;;2.70;;
76574;SDS011;65439;50.948;6.988;2024-03-02T08:14:52;5.65;;;3.35;;
76574;SDS011;65439;50.948;6.988;2024-03-02T08:17:17;5.00;;;3.00;;
76574;SDS011;65439;50.948;6.988;2024-03-02T08:19:42;4.20;;;2.37;;
76574;SDS011;65439;50.948;6.988;2024-03-02T08:22:08;5.32;;;3.33;;
76574;SDS011;65439;50.948;6.988;2024-03-02T08:24:34;3.53;;;2.33;;
76574;SDS011;65439;50.948;6.988;2024-03-02T08:26:59;3.65;;;2.85;;
76574;SDS011;65439;50.948;6.988;2024-03-02T08:29:24;5.32;;;3.13;;
76574;SDS011;65439;50.948;6.988;2024-03-02T08:31:50;6.13;;;3.30;;
76574;SDS011;65439;50.948;6.988;2024-03-02T08:34:15;5.03;;;2.77;;
76574;SDS011;65439;50.948;6.988;2024-03-02T08:36:40;3.43;;;2.70;;
76574;SDS011;65439;50.948;6.988;2024-03-02T08:39:06;6.15;;;3.22;;
76574;SDS011;65439;50.948;6.988;2024-03-02T08:41:40;5.05;;;2.60;;
76574;SDS011;65439;50.948;6.988;2024-03-02T08:44:05;3.90;;;2.13;;
76574;SDS011;65439;50.948;6.988;2024-03-02T08:46:31;3.33;;;1.98;;
76574;SDS011;65439;50.948;6.988;2024-03-02T08:48:56;4.93;;;2.33;;
76574;SDS011;65439;50.948;6.988;2024-03-02T08:51:21;2.97;;;1.93;;
76574;SDS011;65439;50.948;6.988;2024-03-02T08:53:47;2.97;;;2.20;;
76574;SDS011;65439;50.948;6.988;2024-03-02T08:56:12;3.67;;;2.33;;
76574;SDS011;65439;50.948;6.988;2024-03-02T08:58:38;3.03;;;1.92;;
76574;SDS011;65439;50.948;6.988;2024-03-02T09:01:03;2.97;;;2.30;;
76574;SDS011;65439;50.948;6.988;2024-03-02T09:03:28;3.33;;;2.30;;
76574;SDS011;65439;50.948;6.988;2024-03-02T09:05:53;4.53;;;2.07;;
76574;SDS011;65439;50.948;6.988;2024-03-02T09:08:19;3.83;;;1.87;;
76574;SDS011;65439;50.948;6.988;2024-03-02T09:10:44;4.57;;;2.20;;
76574;SDS011;65439;50.948;6.988;2024-03-02T09:13:09;2.90;;;1.80;;
76574;SDS011;65439;50.948;6.988;2024-03-02T09:15:34;4.35;;;2.28;;
76574;SDS011;65439;50.948;6.988;2024-03-02T09:18:02;4.53;;;2.10;;
76574;SDS011;65439;50.948;6.988;2024-03-02T09:20:27;2.97;;;2.17;;
76574;SDS011;65439;50.948;6.988;2024-03-02T09:22:53;4.30;;;2.43;;
76574;SDS011;65439;50.948;6.988;2024-03-02T09:25:18;4.30;;;1.97;;
76574;SDS011;65439;50.948;6.988;2024-03-02T09:27:43;4.13;;;2.20;;
76574;SDS011;65439;50.948;6.988;2024-03-02T09:30:08;4.10;;;2.03;;
76574;SDS011;65439;50.948;6.988;2024-03-02T09:32:35;4.95;;;1.92;;
76574;SDS011;65439;50.948;6.988;2024-03-02T09:35:00;4.07;;;2.30;;
76574;SDS011;65439;50.948;6.988;2024-03-02T09:37:25;3.45;;;2.17;;
76574;SDS011;65439;50.948;6.988;2024-03-02T09:39:51;4.75;;;2.00;;
76574;SDS011;65439;50.948;6.988;2024-03-02T09:42:17;4.05;;;1.92;;
76574;SDS011;65439;50.948;6.988;2024-03-02T09:44:42;9.27;;;2.35;;
76574;SDS011;65439;50.948;6.988;2024-03-02T09:47:08;5.05;;;2.50;;
76574;SDS011;65439;50.948;6.988;2024-03-02T09:49:33;3.55;;;1.73;;
76574;SDS011;65439;50.948;6.988;2024-03-02T09:51:59;6.43;;;2.00;;
76574;SDS011;65439;50.948;6.988;2024-03-02T09:54:25;3.10;;;2.15;;
76574;SDS011;65439;50.948;6.988;2024-03-02T09:56:50;3.67;;;2.00;;
76574;SDS011;65439;50.948;6.988;2024-03-02T09:59:16;4.28;;;2.40;;
76574;SDS011;65439;50.948;6.988;2024-03-02T10:02:00;8.85;;;2.35;;
76574;SDS011;65439;50.948;6.988;2024-03-02T10:04:25;3.78;;;2.03;;
76574;SDS011;65439;50.948;6.988;2024-03-02T10:06:51;2.58;;;1.80;;
76574;SDS011;65439;50.948;6.988;2024-03-02T10:09:28;3.87;;;2.27;;
76574;SDS011;65439;50.948;6.988;2024-03-02T10:12:03;2.47;;;1.85;;
76574;SDS011;65439;50.948;6.988;2024-03-02T10:14:28;5.13;;;2.28;;
76574;SDS011;65439;50.948;6.988;2024-03-02T10:16:53;3.07;;;2.47;;
76574;SDS011;65439;50.948;6.988;2024-03-02T10:19:26;3.03;;;2.00;;
76574;SDS011;65439;50.948;6.988;2024-03-02T10:21:52;3.10;;;2.00;;
76574;SDS011;65439;50.948;6.988;2024-03-02T10:24:17;4.90;;;3.38;;
76574;SDS011;65439;50.948;6.988;2024-03-02T10:26:43;3.97;;;1.90;;
76574;SDS011;65439;50.948;6.988;2024-03-02T10:29:09;6.50;;;1.97;;
76574;SDS011;65439;50.948;6.988;2024-03-02T10:34:00;4.43;;;2.23;;
76574;SDS011;65439;50.948;6.988;2024-03-02T10:36:26;3.60;;;2.10;;
76574;SDS011;65439;50.948;6.988;2024-03-02T10:38:52;2.92;;;1.98;;
76574;SDS011;65439;50.948;6.988;2024-03-02T10:41:23;3.13;;;2.17;;
76574;SDS011;65439;50.948;6.988;2024-03-02T10:43:48;3.50;;;1.95;;
76574;SDS011;65439;50.948;6.988;2024-03-02T10:46:14;3.60;;;2.20;;
76574;SDS011;65439;50.948;6.988;2024-03-02T10:48:39;2.70;;;2.07;;
76574;SDS011;65439;50.948;6.988;2024-03-02T10:51:05;2.95;;;2.75;;
76574;SDS011;65439;50.948;6.988;2024-03-02T10:53:31;4.13;;;2.17;;
76574;SDS011;65439;50.948;6.988;2024-03-02T10:55:57;3.97;;;2.37;;
76574;SDS011;65439;50.948;6.988;2024-03-02T10:58:27;3.33;;;2.05;;
76574;SDS011;65439;50.948;6.988;2024-03-02T11:00:56;2.80;;;2.17;;
76574;SDS011;65439;50.948;6.988;2024-03-02T11:03:21;3.95;;;2.33;;
76574;SDS011;65439;50.948;6.988;2024-03-02T11:05:47;2.90;;;1.90;;
76574;SDS011;65439;50.948;6.988;2024-03-02T11:08:12;4.20;;;2.08;;
76574;SDS011;65439;50.948;6.988;2024-03-02T11:10:41;5.57;;;1.98;;
76574;SDS011;65439;50.948;6.988;2024-03-02T11:13:08;2.70;;;1.67;;
76574;SDS011;65439;50.948;6.988;2024-03-02T11:15:34;3.08;;;1.77;;
76574;SDS011;65439;50.948;6.988;2024-03-02T11:20:26;2.63;;;1.83;;
76574;SDS011;65439;50.948;6.988;2024-03-02T11:22:51;3.63;;;1.60;;
76574;SDS011;65439;50.948;6.988;2024-03-02T11:25:23;3.27;;;1.80;;
76574;SDS011;65439;50.948;6.988;2024-03-02T11:33:01;2.70;;;2.10;;
76574;SDS011;65439;50.948;6.988;2024-03-02T11:35:32;6.15;;;2.38;;
76574;SDS011;65439;50.948;6.988;2024-03-02T11:37:57;3.53;;;2.40;;
76574;SDS011;65439;50.948;6.988;2024-03-02T11:40:27;3.80;;;1.92;;
76574;SDS011;65439;50.948;6.988;2024-03-02T11:42:52;4.35;;;2.25;;
76574;SDS011;65439;50.948;6.988;2024-03-02T11:45:17;3.13;;;2.07;;
76574;SDS011;65439;50.948;6.988;2024-03-02T11:47:50;3.05;;;2.10;;
76574;SDS011;65439;50.948;6.988;2024-03-02T11:50:15;3.83;;;1.92;;
76574;SDS011;65439;50.948;6.988;2024-03-02T11:52:40;3.10;;;1.88;;
76574;SDS011;65439;50.948;6.988;2024-03-02T11:55:06;3.17;;;1.70;;
76574;SDS011;65439;50.948;6.988;2024-03-02T11:57:34;7.88;;;2.42;;
76574;SDS011;65439;50.948;6.988;2024-03-02T12:00:00;3.72;;;2.10;;
76574;SDS011;65439;50.948;6.988;2024-03-02T12:02:28;2.17;;;1.70;;
76574;SDS011;65439;50.948;6.988;2024-03-02T12:04:54;2.63;;;1.75;;
76574;SDS011;65439;50.948;6.988;2024-03-02T12:07:19;3.87;;;2.43;;
76574;SDS011;65439;50.948;6.988;2024-03-02T12:09:48;5.47;;;2.15;;
76574;SDS011;65439;50.948;6.988;2024-03-02T12:12:13;2.30;;;1.77;;
76574;SDS011;65439;50.948;6.988;2024-03-02T12:14:49;3.47;;;2.20;;
76574;SDS011;65439;50.948;6.988;2024-03-02T12:17:14;5.30;;;2.22;;
76574;SDS011;65439;50.948;6.988;2024-03-02T12:19:40;2.30;;;1.57;;
76574;SDS011;65439;50.948;6.988;2024-03-02T12:22:05;2.70;;;1.90;;
76574;SDS011;65439;50.948;6.988;2024-03-02T12:24:30;3.23;;;1.83;;
76574;SDS011;65439;50.948;6.988;2024-03-02T12:26:56;2.93;;;1.80;;
76574;SDS011;65439;50.948;6.988;2024-03-02T12:29:21;2.58;;;1.70;;
76574;SDS011;65439;50.948;6.988;2024-03-02T12:31:50;3.22;;;1.77;;
76574;SDS011;65439;50.948;6.988;2024-03-02T12:34:16;7.35;;;2.22;;
76574;SDS011;65439;50.948;6.988;2024-03-02T12:36:42;2.55;;;1.42;;
76574;SDS011;65439;50.948;6.988;2024-03-02T12:39:08;2.03;;;1.42;;
76574;SDS011;65439;50.948;6.988;2024-03-02T12:41:35;1.90;;;1.70;;
76574;SDS011;65439;50.948;6.988;2024-03-02T12:44:00;2.28;;;1.60;;
76574;SDS011;65439;50.948;6.988;2024-03-02T12:46:25;3.23;;;1.87;;
76574;SDS011;65439;50.948;6.988;2024-03-02T12:48:51;2.13;;;1.20;;
76574;SDS011;65439;50.948;6.988;2024-03-02T12:51:16;4.22;;;1.42;;
76574;SDS011;65439;50.948;6.988;2024-03-02T12:53:41;2.22;;;1.10;;
76574;SDS011;65439;50.948;6.988;2024-03-02T12:56:07;3.07;;;1.60;;
76574;SDS011;65439;50.948;6.988;2024-03-02T12:58:38;2.05;;;1.60;;
76574;SDS011;65439;50.948;6.988;2024-03-02T13:01:07;2.35;;;1.88;;
76574;SDS011;65439;50.948;6.988;2024-03-02T13:03:42;4.00;;;1.58;;
76574;SDS011;65439;50.948;6.988;2024-03-02T13:06:08;2.55;;;1.63;;
76574;SDS011;65439;50.948;6.988;2024-03-02T13:08:33;2.42;;;1.60;;
76574;SDS011;65439;50.948;6.988;2024-03-02T13:10:58;3.83;;;1.67;;
76574;SDS011;65439;50.948;6.988;2024-03-02T13:13:24;3.00;;;1.60;;
76574;SDS011;65439;50.948;6.988;2024-03-02T13:15:49;2.63;;;1.77;;
76574;SDS011;65439;50.948;6.988;2024-03-02T13:18:14;2.80;;;2.23;;
76574;SDS011;65439;50.948;6.988;2024-03-02T13:20:39;6.83;;;1.90;;
76574;SDS011;65439;50.948;6.988;2024-03-02T13:23:05;3.25;;;1.60;;
76574;SDS011;65439;50.948;6.988;2024-03-02T13:25:30;2.17;;;1.47;;
76574;SDS011;65439;50.948;6.988;2024-03-02T13:27:56;2.97;;;1.33;;
76574;SDS011;65439;50.948;6.988;2024-03-02T13:30:21;2.07;;;1.53;;
76574;SDS011;65439;50.948;6.988;2024-03-02T13:32:46;4.13;;;2.05;;
76574;SDS011;65439;50.948;6.988;2024-03-02T13:35:12;4.07;;;1.93;;
76574;SDS011;65439;50.948;6.988;2024-03-02T13:37:37;2.50;;;1.60;;
76574;SDS011;65439;50.948;6.988;2024-03-02T13:40:02;4.03;;;2.10;;
76574;SDS011;65439;50.948;6.988;2024-03-02T13:42:29;3.10;;;1.83;;
76574;SDS011;65439;50.948;6.988;2024-03-02T13:44:54;2.50;;;1.70;;
76574;SDS011;65439;50.948;6.988;2024-03-02T13:47:20;2.80;;;2.50;;
76574;SDS011;65439;50.948;6.988;2024-03-02T13:49:46;5.22;;;1.70;;
76574;SDS011;65439;50.948;6.988;2024-03-02T13:52:13;2.60;;;1.50;;
76574;SDS011;65439;50.948;6.988;2024-03-02T13:54:41;2.65;;;1.42;;
76574;SDS011;65439;50.948;6.988;2024-03-02T13:57:07;3.72;;;2.38;;
76574;SDS011;65439;50.948;6.988;2024-03-02T13:59:32;1.80;;;1.50;;
76574;SDS011;65439;50.948;6.988;2024-03-02T14:01:58;2.88;;;1.63;;
76574;SDS011;65439;50.948;6.988;2024-03-02T14:04:23;4.97;;;2.37;;
76574;SDS011;65439;50.948;6.988;2024-03-02T14:06:48;4.60;;;3.67;;
76574;SDS011;65439;50.948;6.988;2024-03-02T14:09:13;3.37;;;2.30;;
76574;SDS011;65439;50.948;6.988;2024-03-02T14:11:38;1.93;;;1.53;;
76574;SDS011;65439;50.948;6.988;2024-03-02T14:14:03;3.40;;;1.30;;
76574;SDS011;65439;50.948;6.988;2024-03-02T14:16:29;3.50;;;1.40;;
76574;SDS011;65439;50.948;6.988;2024-03-02T14:18:54;1.60;;;1.03;;
76574;SDS011;65439;50.948;6.988;2024-03-02T14:21:19;2.10;;;1.40;;
76574;SDS011;65439;50.948;6.988;2024-03-02T14:23:44;1.85;;;1.38;;
76574;SDS011;65439;50.948;6.988;2024-03-02T14:26:09;1.97;;;1.50;;
76574;SDS011;65439;50.948;6.988;2024-03-02T14:28:34;3.07;;;1.50;;
76574;SDS011;65439;50.948;6.988;2024-03-02T14:30:59;3.90;;;1.85;;
76574;SDS011;65439;50.948;6.988;2024-03-02T14:33:26;2.88;;;1.70;;
76574;SDS011;65439;50.948;6.988;2024-03-02T14:35:51;2.63;;;2.10;;
76574;SDS011;65439;50.948;6.988;2024-03-02T14:38:16;2.33;;;1.80;;
76574;SDS011;65439;50.948;6.988;2024-03-02T14:40:41;3.80;;;2.10;;
76574;SDS011;65439;50.948;6.988;2024-03-02T14:43:06;3.38;;;1.88;;
76574;SDS011;65439;50.948;6.988;2024-03-02T14:45:32;1.97;;;1.60;;
76574;SDS011;65439;50.948;6.988;2024-03-02T14:47:57;2.77;;;2.00;;
76574;SDS011;65439;50.948;6.988;2024-03-02T14:50:24;3.28;;;1.90;;
76574;SDS011;65439;50.948;6.988;2024-03-02T14:52:50;2.20;;;1.48;;
76574;SDS011;65439;50.948;6.988;2024-03-02T14:55:15;2.55;;;1.80;;
76574;SDS011;65439;50.948;6.988;2024-03-02T14:57:40;4.43;;;1.93;;
76574;SDS011;65439;50.948;6.988;2024-03-02T15:00:05;3.23;;;1.83;;
76574;SDS011;65439;50.948;6.988;2024-03-02T15:02:32;4.15;;;2.30;;